Time;durP1;ratioP1;P1;durP2;ratioP2;P2;SDS_P1;SDS_P2;PMS_P1;PMS_P2;Temp;Humidity;BMP_temperature;BMP_pressure;BME280_temperature;BME280_humidity;BME280_pressure;Samples;Min_cycle;Max_cycle;Signal;HPM_P1;HPM_P2
2022/08/28 00:00:24;;;;;;;11.90;4.30;;;;;;;;;;5048591;28;20945;-8
2022/08/28 00:02:51;;;;;;;6.90;3.65;;;;;;;;;;5048834;28;21086;-8
2022/08/28 00:05:20;;;;;;;8.32;3.72;;;;;;;;;;5048117;28;20717;-8
2022/08/28 00:07:48;;;;;;;8.95;3.58;;;;;;;;;;5049564;28;20851;-7
2022/08/28 00:10:16;;;;;;;7.50;3.72;;;;;;;;;;5045180;28;21141;-8
2022/08/28 00:12:43;;;;;;;6.88;3.08;;;;;;;;;;5050729;28;20965;-8
2022/08/28 00:15:11;;;;;;;7.40;3.28;;;;;;;;;;5048971;28;20232;-8
2022/08/28 00:17:39;;;;;;;8.88;4.00;;;;;;;;;;5049607;28;20245;-7
2022/08/28 00:20:08;;;;;;;7.28;4.20;;;;;;;;;;5050192;28;20246;-7
2022/08/28 00:22:37;;;;;;;8.35;3.60;;;;;;;;;;5050002;28;21052;-8
2022/08/28 00:25:05;;;;;;;8.52;3.53;;;;;;;;;;5050773;28;20226;-8
2022/08/28 00:30:17;;;;;;;6.78;3.65;;;;;;;;;;5050536;28;20230;-7
2022/08/28 00:32:44;;;;;;;7.82;3.50;;;;;;;;;;5050207;28;20345;-7
2022/08/28 00:35:12;;;;;;;8.18;3.53;;;;;;;;;;5048265;28;20260;-7
2022/08/28 00:37:41;;;;;;;9.43;3.70;;;;;;;;;;5049454;28;20242;-7
2022/08/28 00:40:09;;;;;;;8.40;4.05;;;;;;;;;;5049632;28;20230;-8
2022/08/28 00:42:38;;;;;;;8.55;3.97;;;;;;;;;;5048747;28;20265;-7
2022/08/28 00:45:05;;;;;;;7.47;3.55;;;;;;;;;;5050507;28;20236;-8
2022/08/28 00:47:33;;;;;;;6.75;3.85;;;;;;;;;;5050212;28;20226;-7
2022/08/28 00:50:01;;;;;;;9.18;3.42;;;;;;;;;;5048523;28;20230;-8
2022/08/28 00:52:27;;;;;;;9.93;4.40;;;;;;;;;;5050113;28;20226;-8
2022/08/28 00:54:56;;;;;;;6.40;3.25;;;;;;;;;;5050070;28;20313;-7
2022/08/28 00:57:26;;;;;;;12.00;3.70;;;;;;;;;;5041281;28;20238;-8
2022/08/28 00:59:54;;;;;;;7.82;3.70;;;;;;;;;;5052255;28;20230;-7
2022/08/28 01:02:21;;;;;;;10.90;3.85;;;;;;;;;;5053562;28;20226;-7
2022/08/28 01:04:49;;;;;;;9.00;3.63;;;;;;;;;;5051434;28;20304;-7
2022/08/28 01:07:16;;;;;;;7.13;3.88;;;;;;;;;;5053952;28;20267;-8
2022/08/28 01:09:44;;;;;;;6.30;3.38;;;;;;;;;;5053094;28;20230;-7
2022/08/28 01:12:14;;;;;;;8.20;3.45;;;;;;;;;;5050624;28;20237;-7
2022/08/28 01:14:44;;;;;;;10.82;3.75;;;;;;;;;;5044788;28;20226;-7
2022/08/28 01:17:12;;;;;;;7.40;3.67;;;;;;;;;;5050963;28;20232;-7
2022/08/28 01:19:39;;;;;;;8.52;3.67;;;;;;;;;;5051757;28;20716;-7
2022/08/28 01:22:11;;;;;;;9.40;3.47;;;;;;;;;;5050809;28;20250;-7
2022/08/28 01:24:40;;;;;;;6.25;3.85;;;;;;;;;;5048468;28;20242;-8
2022/08/28 01:27:07;;;;;;;9.45;3.55;;;;;;;;;;5054585;28;20245;-7
2022/08/28 01:29:35;;;;;;;11.25;4.05;;;;;;;;;;5038843;28;20236;-8
2022/08/28 01:32:02;;;;;;;7.80;3.72;;;;;;;;;;5052507;28;20230;-7
2022/08/28 01:34:30;;;;;;;6.63;3.40;;;;;;;;;;5053253;28;20226;-7
2022/08/28 01:36:58;;;;;;;6.40;3.40;;;;;;;;;;5052014;28;20333;-8
2022/08/28 01:39:29;;;;;;;6.60;3.20;;;;;;;;;;5043149;28;20234;-7
2022/08/28 01:41:59;;;;;;;11.30;3.80;;;;;;;;;;5052790;28;20237;-7
2022/08/28 01:44:27;;;;;;;7.75;3.90;;;;;;;;;;5052821;28;20240;-7
2022/08/28 01:46:54;;;;;;;8.23;3.47;;;;;;;;;;5051254;28;20241;-7
2022/08/28 01:49:23;;;;;;;10.05;3.38;;;;;;;;;;5052036;28;20233;-7
2022/08/28 01:51:50;;;;;;;5.97;3.38;;;;;;;;;;5053091;28;20241;-7
2022/08/28 01:54:21;;;;;;;9.65;3.53;;;;;;;;;;5044359;28;20280;-7
2022/08/28 01:56:48;;;;;;;8.43;3.67;;;;;;;;;;5051917;28;20274;-7
2022/08/28 01:59:17;;;;;;;6.85;3.20;;;;;;;;;;5052014;28;20237;-8
2022/08/28 02:01:44;;;;;;;6.97;3.40;;;;;;;;;;5052457;28;20241;-8
2022/08/28 02:04:12;;;;;;;6.07;2.78;;;;;;;;;;5045735;28;20888;-8
2022/08/28 02:06:40;;;;;;;7.55;3.50;;;;;;;;;;5038902;28;20234;-7
2022/08/28 02:09:07;;;;;;;4.95;3.00;;;;;;;;;;5051454;28;20230;-8
2022/08/28 02:11:42;;;;;;;9.20;4.40;;;;;;;;;;5047593;28;20239;-7
2022/08/28 02:14:12;;;;;;;5.97;3.58;;;;;;;;;;5045074;28;21753;-7
2022/08/28 02:16:41;;;;;;;8.43;3.33;;;;;;;;;;5052345;28;20238;-8
2022/08/28 02:19:08;;;;;;;7.03;3.03;;;;;;;;;;5050092;28;20234;-7
2022/08/28 02:21:36;;;;;;;7.50;3.50;;;;;;;;;;5069315;22;20241;-16
2022/08/28 02:24:04;;;;;;;6.78;3.70;;;;;;;;;;5073587;28;20229;-16
2022/08/28 02:26:32;;;;;;;7.30;3.72;;;;;;;;;;5073436;28;20229;-16
2022/08/28 02:28:59;;;;;;;9.27;3.90;;;;;;;;;;5073420;28;20689;-16
2022/08/28 02:31:27;;;;;;;7.90;3.45;;;;;;;;;;5074954;28;20248;-16
2022/08/28 02:33:55;;;;;;;6.45;3.50;;;;;;;;;;5074800;28;20229;-16
2022/08/28 02:36:23;;;;;;;6.88;3.10;;;;;;;;;;5069388;28;20233;-16
2022/08/28 02:38:51;;;;;;;8.27;3.58;;;;;;;;;;5073453;28;20235;-16
2022/08/28 02:41:24;;;;;;;8.38;3.25;;;;;;;;;;5072716;28;21526;-16
2022/08/28 02:43:51;;;;;;;10.85;4.00;;;;;;;;;;5067156;28;20233;-16
2022/08/28 02:46:18;;;;;;;8.57;3.53;;;;;;;;;;5072496;28;20240;-16
2022/08/28 02:48:46;;;;;;;4.90;3.17;;;;;;;;;;5071862;28;20230;-15
2022/08/28 02:51:14;;;;;;;7.07;3.78;;;;;;;;;;5071928;28;20236;-16
2022/08/28 02:53:42;;;;;;;6.30;3.13;;;;;;;;;;5071948;28;20762;-16
2022/08/28 02:56:09;;;;;;;7.28;3.30;;;;;;;;;;5072622;28;20232;-16
2022/08/28 02:58:36;;;;;;;5.78;2.97;;;;;;;;;;5073186;28;20240;-16
2022/08/28 03:01:05;;;;;;;8.00;3.53;;;;;;;;;;5071342;28;20225;-16
2022/08/28 03:03:33;;;;;;;9.02;3.53;;;;;;;;;;5063546;28;20233;-16
2022/08/28 03:06:01;;;;;;;5.57;3.15;;;;;;;;;;5072397;28;20268;-16
2022/08/28 03:08:31;;;;;;;7.50;3.22;;;;;;;;;;5072232;28;20232;-16
2022/08/28 03:10:58;;;;;;;7.93;3.05;;;;;;;;;;5070153;28;20229;-16
2022/08/28 03:13:25;;;;;;;9.13;3.30;;;;;;;;;;5073237;28;20233;-16
2022/08/28 03:15:53;;;;;;;6.18;3.33;;;;;;;;;;5072261;28;20225;-16
2022/08/28 03:18:23;;;;;;;7.43;3.30;;;;;;;;;;5068782;28;20343;-16
2022/08/28 03:20:51;;;;;;;5.95;3.38;;;;;;;;;;5070488;28;20621;-15
2022/08/28 03:23:27;;;;;;;5.97;2.78;;;;;;;;;;5068108;28;20709;-16
2022/08/28 03:25:57;;;;;;;7.95;3.50;;;;;;;;;;5064704;28;20719;-16
2022/08/28 03:28:25;;;;;;;8.55;3.55;;;;;;;;;;5044845;28;20288;-16
2022/08/28 03:30:52;;;;;;;7.55;3.03;;;;;;;;;;5059204;28;20304;-16
2022/08/28 03:33:20;;;;;;;6.03;3.00;;;;;;;;;;5069086;28;20237;-16
2022/08/28 03:35:48;;;;;;;8.80;3.22;;;;;;;;;;5066903;28;20229;-16
2022/08/28 03:38:15;;;;;;;6.22;3.20;;;;;;;;;;5064038;28;20256;-16
2022/08/28 03:40:43;;;;;;;6.95;3.42;;;;;;;;;;5064594;28;20234;-15
2022/08/28 03:43:14;;;;;;;6.78;3.15;;;;;;;;;;5044775;28;20297;-16
2022/08/28 03:45:41;;;;;;;6.07;3.13;;;;;;;;;;5053892;28;20988;-16
2022/08/28 03:48:08;;;;;;;5.65;2.90;;;;;;;;;;5052000;28;20287;-16
2022/08/28 03:50:36;;;;;;;8.07;3.30;;;;;;;;;;5049553;28;20238;-16
2022/08/28 03:53:03;;;;;;;5.32;2.58;;;;;;;;;;5063883;28;20284;-16
2022/08/28 03:55:30;;;;;;;8.38;3.60;;;;;;;;;;5072093;28;20262;-16
2022/08/28 03:57:58;;;;;;;5.55;3.13;;;;;;;;;;5058238;28;20239;-16
2022/08/28 04:00:26;;;;;;;5.13;2.70;;;;;;;;;;5051149;28;20233;-16
2022/08/28 04:02:54;;;;;;;8.23;3.45;;;;;;;;;;5059812;28;20579;-16
2022/08/28 04:05:22;;;;;;;7.22;2.72;;;;;;;;;;5070075;28;20287;-16
2022/08/28 04:07:52;;;;;;;5.80;2.63;;;;;;;;;;5058288;28;20402;-16
2022/08/28 04:10:19;;;;;;;6.45;3.22;;;;;;;;;;5070094;28;20240;-16
2022/08/28 04:12:47;;;;;;;5.90;3.33;;;;;;;;;;5071051;28;20256;-16
2022/08/28 04:15:14;;;;;;;7.75;2.97;;;;;;;;;;5062250;28;20692;-16
2022/08/28 04:17:43;;;;;;;8.32;3.03;;;;;;;;;;5069257;28;20681;-17
2022/08/28 04:20:10;;;;;;;6.85;3.00;;;;;;;;;;5072135;28;20241;-16
2022/08/28 04:22:38;;;;;;;13.15;3.42;;;;;;;;;;5049985;28;21023;-16
2022/08/28 04:25:05;;;;;;;6.05;2.80;;;;;;;;;;5072089;28;20240;-16
2022/08/28 04:27:33;;;;;;;5.68;3.47;;;;;;;;;;5071792;28;20236;-17
2022/08/28 04:30:00;;;;;;;9.77;3.10;;;;;;;;;;5061784;28;20233;-16
2022/08/28 04:32:27;;;;;;;11.40;3.20;;;;;;;;;;5062310;28;20281;-16
2022/08/28 04:34:56;;;;;;;6.85;3.10;;;;;;;;;;5073566;28;20236;-17
2022/08/28 04:37:24;;;;;;;5.95;2.90;;;;;;;;;;5068801;28;20234;-16
2022/08/28 04:39:54;;;;;;;5.20;2.97;;;;;;;;;;5068702;28;20616;-17
2022/08/28 04:42:21;;;;;;;6.20;2.72;;;;;;;;;;5064836;28;20712;-17
2022/08/28 04:44:49;;;;;;;6.07;3.00;;;;;;;;;;5058419;28;20348;-17
2022/08/28 04:47:16;;;;;;;6.30;2.88;;;;;;;;;;5060655;28;20225;-17
2022/08/28 04:49:43;;;;;;;8.35;2.80;;;;;;;;;;5074458;28;20233;-17
2022/08/28 04:52:12;;;;;;;5.32;2.60;;;;;;;;;;5074234;28;20276;-17
2022/08/28 04:54:39;;;;;;;6.93;2.83;;;;;;;;;;5054897;28;20227;-17
2022/08/28 04:57:07;;;;;;;5.65;3.00;;;;;;;;;;5072251;28;20233;-17
2022/08/28 04:59:35;;;;;;;5.22;2.70;;;;;;;;;;5067767;28;20242;-16
2022/08/28 05:02:03;;;;;;;5.32;2.72;;;;;;;;;;5065281;28;20352;-18
2022/08/28 05:04:30;;;;;;;4.35;2.50;;;;;;;;;;5055671;28;20662;-17
2022/08/28 05:06:57;;;;;;;7.78;2.80;;;;;;;;;;5054363;28;20686;-17
2022/08/28 05:09:26;;;;;;;5.95;2.58;;;;;;;;;;5054541;28;20238;-17
2022/08/28 05:11:53;;;;;;;9.82;2.83;;;;;;;;;;5052493;28;20241;-17
2022/08/28 05:14:21;;;;;;;7.22;2.83;;;;;;;;;;5053803;28;20222;-17
2022/08/28 05:16:49;;;;;;;7.72;3.22;;;;;;;;;;5053087;28;21023;-15
2022/08/28 05:19:16;;;;;;;6.80;2.22;;;;;;;;;;5053327;28;20234;-16
2022/08/28 05:21:44;;;;;;;5.60;2.75;;;;;;;;;;5053220;28;20246;-17
2022/08/28 05:24:12;;;;;;;7.03;2.67;;;;;;;;;;5053433;28;21058;-17
2022/08/28 05:26:41;;;;;;;5.63;2.83;;;;;;;;;;5053105;28;20237;-17
2022/08/28 05:29:08;;;;;;;8.38;2.65;;;;;;;;;;5052963;28;20267;-17
2022/08/28 05:31:37;;;;;;;5.40;2.60;;;;;;;;;;5053478;28;20230;-17
2022/08/28 05:34:05;;;;;;;11.68;2.65;;;;;;;;;;5052115;28;20261;-17
2022/08/28 05:36:34;;;;;;;5.55;2.58;;;;;;;;;;5052709;28;20238;-16
2022/08/28 05:39:02;;;;;;;4.20;2.38;;;;;;;;;;5060482;28;20234;-17
2022/08/28 05:41:30;;;;;;;5.95;2.75;;;;;;;;;;5045993;28;20284;-17
2022/08/28 05:43:59;;;;;;;6.28;2.90;;;;;;;;;;5046016;28;20242;-17
2022/08/28 05:46:27;;;;;;;5.65;2.47;;;;;;;;;;5053331;28;20226;-17
2022/08/28 05:48:54;;;;;;;8.73;3.00;;;;;;;;;;5053309;28;20222;-16
2022/08/28 05:51:22;;;;;;;4.43;2.60;;;;;;;;;;5052805;28;20613;-16
2022/08/28 05:53:50;;;;;;;4.93;2.40;;;;;;;;;;5053129;28;20623;-17
2022/08/28 05:56:18;;;;;;;6.60;2.97;;;;;;;;;;5053016;28;20724;-17
2022/08/28 05:58:46;;;;;;;4.32;2.92;;;;;;;;;;5052519;28;20237;-17
2022/08/28 06:01:15;;;;;;;5.35;2.33;;;;;;;;;;5052004;28;20233;-17
2022/08/28 06:03:43;;;;;;;4.95;2.60;;;;;;;;;;5052816;28;20249;-17
2022/08/28 06:06:11;;;;;;;6.65;2.53;;;;;;;;;;5041826;28;20705;-17
2022/08/28 06:08:39;;;;;;;5.28;2.40;;;;;;;;;;5052863;28;21180;-16
2022/08/28 06:11:25;;;;;;;4.25;2.17;;;;;;;;;;5051942;28;21177;-16
2022/08/28 06:13:53;;;;;;;8.55;3.13;;;;;;;;;;5052480;28;20270;-16
2022/08/28 06:16:22;;;;;;;5.85;2.55;;;;;;;;;;5052643;28;20270;-17
2022/08/28 06:18:50;;;;;;;5.60;2.50;;;;;;;;;;5052677;28;20237;-17
2022/08/28 06:21:17;;;;;;;7.85;2.70;;;;;;;;;;5051698;28;20249;-17
2022/08/28 06:23:45;;;;;;;4.75;2.63;;;;;;;;;;5046218;28;20867;-17
2022/08/28 06:26:12;;;;;;;5.13;2.40;;;;;;;;;;5052279;28;21034;-17
2022/08/28 06:28:39;;;;;;;6.05;2.30;;;;;;;;;;5052202;28;20239;-17
2022/08/28 06:31:07;;;;;;;6.28;3.00;;;;;;;;;;5054548;28;20226;-17
2022/08/28 06:33:54;;;;;;;7.22;2.30;;;;;;;;;;5058622;28;20612;-16
2022/08/28 06:36:22;;;;;;;6.57;2.47;;;;;;;;;;5069923;28;20226;-17
2022/08/28 06:38:49;;;;;;;5.47;2.45;;;;;;;;;;5065701;28;20688;-17
2022/08/28 06:41:17;;;;;;;8.00;2.50;;;;;;;;;;5064649;28;20226;-16
2022/08/28 06:43:44;;;;;;;5.85;2.78;;;;;;;;;;5063847;28;20244;-16
2022/08/28 06:46:11;;;;;;;6.50;2.50;;;;;;;;;;5054482;28;20233;-15
2022/08/28 06:48:39;;;;;;;9.15;2.70;;;;;;;;;;5060526;28;20363;-16
2022/08/28 06:51:09;;;;;;;5.43;1.92;;;;;;;;;;5057845;28;20234;-15
2022/08/28 06:53:36;;;;;;;8.93;2.63;;;;;;;;;;5054360;28;20226;-16
2022/08/28 06:56:06;;;;;;;12.30;3.30;;;;;;;;;;5049672;28;20719;-15
2022/08/28 06:58:33;;;;;;;5.15;2.17;;;;;;;;;;5050588;28;20240;-15
2022/08/28 07:01:01;;;;;;;7.93;1.92;;;;;;;;;;5052344;28;20252;-15
2022/08/28 07:03:30;;;;;;;6.03;2.38;;;;;;;;;;5047064;28;20261;-16
2022/08/28 07:05:57;;;;;;;6.60;2.65;;;;;;;;;;5045314;28;20238;-16
2022/08/28 07:08:26;;;;;;;10.50;3.20;;;;;;;;;;5051366;28;20613;-16
2022/08/28 07:10:53;;;;;;;7.53;2.22;;;;;;;;;;5057548;28;20261;-15
2022/08/28 07:13:21;;;;;;;8.68;2.50;;;;;;;;;;5050048;28;21139;-16
2022/08/28 07:15:48;;;;;;;5.15;2.25;;;;;;;;;;5046205;28;20233;-16
2022/08/28 07:18:16;;;;;;;6.60;2.28;;;;;;;;;;5056238;28;20234;-16
2022/08/28 07:20:43;;;;;;;7.90;2.17;;;;;;;;;;5049520;28;20226;-15
2022/08/28 07:23:11;;;;;;;6.80;2.50;;;;;;;;;;5049025;28;20239;-16
2022/08/28 07:25:40;;;;;;;8.05;2.25;;;;;;;;;;5058168;28;20246;-16
2022/08/28 07:28:08;;;;;;;12.95;2.38;;;;;;;;;;5059613;28;20226;-16
2022/08/28 07:30:35;;;;;;;7.03;2.38;;;;;;;;;;5060289;28;20660;-16
2022/08/28 07:33:02;;;;;;;6.53;2.33;;;;;;;;;;5059514;28;20230;-16
2022/08/28 07:35:31;;;;;;;11.68;2.85;;;;;;;;;;5056014;28;20384;-16
2022/08/28 07:37:59;;;;;;;7.50;2.35;;;;;;;;;;5066503;28;21066;-15
2022/08/28 07:40:26;;;;;;;11.95;2.17;;;;;;;;;;5060630;28;20226;-15
2022/08/28 07:45:39;;;;;;;16.08;2.78;;;;;;;;;;5063504;28;20238;-17
2022/08/28 07:48:07;;;;;;;16.38;2.28;;;;;;;;;;5063832;28;20229;-17
2022/08/28 07:50:37;;;;;;;17.27;2.63;;;;;;;;;;5063929;28;20233;-16
2022/08/28 07:53:07;;;;;;;10.88;2.50;;;;;;;;;;5059328;28;20245;-15
2022/08/28 07:55:35;;;;;;;9.80;2.28;;;;;;;;;;5064122;28;20684;-16
2022/08/28 07:58:04;;;;;;;6.68;2.40;;;;;;;;;;5050173;28;20241;-16
2022/08/28 08:00:31;;;;;;;9.90;2.00;;;;;;;;;;5050877;28;20234;-16
2022/08/28 08:02:59;;;;;;;9.27;2.22;;;;;;;;;;5050857;28;20233;-18
2022/08/28 08:05:26;;;;;;;7.07;2.08;;;;;;;;;;5050262;28;20704;-15
2022/08/28 08:07:54;;;;;;;8.07;1.98;;;;;;;;;;5049578;28;20870;-15
2022/08/28 08:10:21;;;;;;;8.35;2.10;;;;;;;;;;5051671;28;20606;-16
2022/08/28 08:12:48;;;;;;;6.10;2.15;;;;;;;;;;5051461;28;20230;-16
2022/08/28 08:15:19;;;;;;;7.10;1.92;;;;;;;;;;5050610;28;20608;-14
2022/08/28 08:17:47;;;;;;;4.05;1.38;;;;;;;;;;5050892;28;20242;-15
2022/08/28 08:20:14;;;;;;;4.40;1.65;;;;;;;;;;5050707;28;20230;-16
2022/08/28 08:22:41;;;;;;;8.77;1.98;;;;;;;;;;5049869;28;20257;-17
2022/08/28 08:25:09;;;;;;;5.82;2.13;;;;;;;;;;5055266;28;20229;-18
2022/08/28 08:27:37;;;;;;;8.38;1.83;;;;;;;;;;5053956;28;20226;-18
2022/08/28 08:30:10;;;;;;;4.97;1.60;;;;;;;;;;5057744;28;20233;-17
2022/08/28 08:32:39;;;;;;;9.30;1.77;;;;;;;;;;5043532;28;20242;-17
2022/08/28 08:35:06;;;;;;;6.82;1.63;;;;;;;;;;5056146;28;20697;-17
2022/08/28 08:37:34;;;;;;;7.13;1.70;;;;;;;;;;5064260;28;20233;-17
2022/08/28 08:40:01;;;;;;;7.25;2.20;;;;;;;;;;5062631;28;20237;-17
2022/08/28 08:42:30;;;;;;;5.63;1.65;;;;;;;;;;5059648;28;20238;-16
2022/08/28 08:44:58;;;;;;;12.13;1.80;;;;;;;;;;5062169;28;20245;-17
2022/08/28 08:47:28;;;;;;;11.93;2.08;;;;;;;;;;5057453;28;20234;-17
2022/08/28 08:49:57;;;;;;;8.75;1.88;;;;;;;;;;5063959;28;21052;-17
2022/08/28 08:52:30;;;;;;;7.50;1.92;;;;;;;;;;5059610;28;20233;-16
2022/08/28 08:55:02;;;;;;;5.47;1.63;;;;;;;;;;5049306;28;20237;-17
2022/08/28 08:57:29;;;;;;;10.18;1.73;;;;;;;;;;5041378;28;20230;-17
2022/08/28 08:59:57;;;;;;;6.20;2.10;;;;;;;;;;5051411;28;20230;-17
2022/08/28 09:02:26;;;;;;;5.80;1.67;;;;;;;;;;5050378;28;20237;-17
2022/08/28 09:04:59;;;;;;;8.05;2.05;;;;;;;;;;5050455;28;20259;-17
2022/08/28 09:07:28;;;;;;;10.57;1.55;;;;;;;;;;5050942;28;20295;-17
2022/08/28 09:09:56;;;;;;;6.60;2.03;;;;;;;;;;5055355;28;20226;-17
2022/08/28 09:12:24;;;;;;;8.52;1.67;;;;;;;;;;5041849;28;20237;-17
2022/08/28 09:14:53;;;;;;;5.32;1.70;;;;;;;;;;5048560;28;20268;-17
2022/08/28 09:17:22;;;;;;;7.43;1.70;;;;;;;;;;5047963;28;20234;-17
2022/08/28 09:19:49;;;;;;;6.82;1.85;;;;;;;;;;5048277;28;20237;-17
2022/08/28 09:22:18;;;;;;;7.65;1.80;;;;;;;;;;5052136;28;20253;-16
2022/08/28 09:24:45;;;;;;;5.55;1.58;;;;;;;;;;5062173;28;20244;-17
2022/08/28 09:27:21;;;;;;;4.32;1.77;;;;;;;;;;5062184;28;20237;-17
2022/08/28 09:29:54;;;;;;;4.15;1.35;;;;;;;;;;5056215;28;20257;-17
2022/08/28 09:32:22;;;;;;;4.35;1.58;;;;;;;;;;5056595;28;20222;-17
2022/08/28 09:34:58;;;;;;;5.00;1.90;;;;;;;;;;5060821;28;20244;-17
2022/08/28 09:37:28;;;;;;;5.47;1.50;;;;;;;;;;5051626;28;20241;-17
2022/08/28 09:40:03;;;;;;;5.65;1.85;;;;;;;;;;5065588;28;20234;-16
2022/08/28 09:45:21;;;;;;;3.60;1.27;;;;;;;;;;5038905;28;20748;-16
2022/08/28 09:47:49;;;;;;;8.73;4.13;;;;;;;;;;5063991;28;20713;-17
2022/08/28 09:50:24;;;;;;;7.22;4.10;;;;;;;;;;5051991;28;20234;-16
2022/08/28 09:52:53;;;;;;;11.40;4.25;;;;;;;;;;5052730;28;20237;-16
2022/08/28 09:55:23;;;;;;;7.25;3.78;;;;;;;;;;5052446;28;20230;-17
2022/08/28 09:57:50;;;;;;;5.60;3.25;;;;;;;;;;5051057;28;20244;-17
2022/08/28 10:00:18;;;;;;;8.13;2.72;;;;;;;;;;5052707;28;20234;-18
2022/08/28 10:02:45;;;;;;;5.97;1.98;;;;;;;;;;5051791;28;20246;-16
2022/08/28 10:05:15;;;;;;;8.60;1.92;;;;;;;;;;5056641;28;20249;-16
2022/08/28 10:07:45;;;;;;;6.97;1.80;;;;;;;;;;5067127;28;20229;-17
2022/08/28 10:10:17;;;;;;;4.55;1.40;;;;;;;;;;5051295;28;20226;-17
2022/08/28 10:12:47;;;;;;;4.18;1.58;;;;;;;;;;5051672;28;20230;-17
2022/08/28 10:15:16;;;;;;;5.60;1.50;;;;;;;;;;5052435;28;20296;-17
2022/08/28 10:17:47;;;;;;;6.38;1.50;;;;;;;;;;5066316;28;20243;-17
2022/08/28 10:20:16;;;;;;;5.40;1.45;;;;;;;;;;5054332;28;20237;-17
2022/08/28 10:22:44;;;;;;;8.23;1.40;;;;;;;;;;5037828;28;20249;-16
2022/08/28 10:25:16;;;;;;;3.90;1.52;;;;;;;;;;5046612;28;20715;-18
2022/08/28 10:27:47;;;;;;;3.53;1.38;;;;;;;;;;5052021;28;21062;-17
2022/08/28 10:30:15;;;;;;;12.88;1.42;;;;;;;;;;5052436;28;20264;-17
2022/08/28 10:32:51;;;;;;;7.25;1.35;;;;;;;;;;5051631;28;20337;-17
2022/08/28 10:35:19;;;;;;;5.13;1.40;;;;;;;;;;5050021;28;20748;-16
2022/08/28 10:37:49;;;;;;;9.18;1.48;;;;;;;;;;5051662;28;20222;-16
2022/08/28 10:40:21;;;;;;;10.10;1.40;;;;;;;;;;5056243;28;20225;-17
2022/08/28 10:42:49;;;;;;;11.60;1.63;;;;;;;;;;5062242;28;20798;-16
2022/08/28 10:45:18;;;;;;;6.43;1.77;;;;;;;;;;5057169;28;20229;-17
2022/08/28 10:47:47;;;;;;;8.35;1.80;;;;;;;;;;5062926;28;20352;-17
2022/08/28 10:50:15;;;;;;;9.90;1.45;;;;;;;;;;5067754;28;20230;-16
2022/08/28 10:52:45;;;;;;;3.60;1.67;;;;;;;;;;5055019;28;20264;-17
2022/08/28 10:55:13;;;;;;;15.45;2.05;;;;;;;;;;5045734;28;20256;-17
2022/08/28 10:57:44;;;;;;;9.40;1.90;;;;;;;;;;5050856;28;20229;-17
2022/08/28 11:00:12;;;;;;;9.55;1.67;;;;;;;;;;5051900;28;20234;-17
2022/08/28 11:02:40;;;;;;;6.10;1.50;;;;;;;;;;5051442;28;20358;-17
2022/08/28 11:05:08;;;;;;;9.10;2.00;;;;;;;;;;5043940;28;20233;-17
2022/08/28 11:07:36;;;;;;;4.18;1.50;;;;;;;;;;5055116;28;20234;-17
2022/08/28 11:10:15;;;;;;;9.20;1.33;;;;;;;;;;5050837;28;20227;-16
2022/08/28 11:12:44;;;;;;;4.47;1.67;;;;;;;;;;5048064;28;20234;-16
2022/08/28 11:15:23;;;;;;;5.57;1.85;;;;;;;;;;5051098;28;20234;-16
2022/08/28 11:17:51;;;;;;;4.03;1.73;;;;;;;;;;5051252;28;20221;-17
2022/08/28 11:20:19;;;;;;;6.55;1.60;;;;;;;;;;5048052;28;20240;-17
2022/08/28 11:22:47;;;;;;;4.80;1.35;;;;;;;;;;5050810;28;20250;-15
2022/08/28 11:25:16;;;;;;;4.10;1.50;;;;;;;;;;5050588;28;20237;-17
2022/08/28 11:27:58;;;;;;;4.05;1.42;;;;;;;;;;5050240;28;20242;-16
2022/08/28 11:30:31;;;;;;;6.10;1.50;;;;;;;;;;5050419;28;20226;-19
2022/08/28 11:33:03;;;;;;;6.47;1.60;;;;;;;;;;5051223;28;20288;-18
2022/08/28 11:35:39;;;;;;;4.57;1.52;;;;;;;;;;5050296;28;20230;-15
2022/08/28 11:38:06;;;;;;;3.92;1.42;;;;;;;;;;5051409;28;20275;-16
2022/08/28 11:40:50;;;;;;;4.93;1.80;;;;;;;;;;5050484;28;20273;-17
2022/08/28 11:43:31;;;;;;;7.68;1.52;;;;;;;;;;5046463;28;20266;-17
2022/08/28 11:46:07;;;;;;;7.38;1.73;;;;;;;;;;5049589;28;20260;-18
2022/08/28 11:48:44;;;;;;;5.15;1.48;;;;;;;;;;5049925;28;20230;-16
2022/08/28 11:51:21;;;;;;;4.57;1.50;;;;;;;;;;5033654;28;20330;-17
2022/08/28 11:53:49;;;;;;;3.05;1.48;;;;;;;;;;5043979;28;20241;-18
2022/08/28 11:56:34;;;;;;;4.88;1.50;;;;;;;;;;5049895;28;20238;-15
2022/08/28 11:59:14;;;;;;;6.50;1.30;;;;;;;;;;5049263;28;20233;-18
2022/08/28 12:01:43;;;;;;;4.45;1.35;;;;;;;;;;5049776;28;21190;-17
2022/08/28 12:04:12;;;;;;;3.75;1.30;;;;;;;;;;5049617;28;20238;-17
2022/08/28 12:06:53;;;;;;;2.60;1.50;;;;;;;;;;5049717;28;20808;-16
2022/08/28 12:09:38;;;;;;;5.40;1.70;;;;;;;;;;5049687;28;20230;-16
2022/08/28 12:12:06;;;;;;;5.03;1.65;;;;;;;;;;5049695;28;20225;-17
2022/08/28 12:15:06;;;;;;;4.03;1.50;;;;;;;;;;5052151;28;20233;-17
2022/08/28 12:17:51;;;;;;;3.25;1.40;;;;;;;;;;5038944;28;20226;-17
2022/08/28 12:20:20;;;;;;;5.35;1.30;;;;;;;;;;5049837;28;20237;-17
2022/08/28 12:22:51;;;;;;;4.07;1.48;;;;;;;;;;5048489;28;20246;-17
2022/08/28 12:25:22;;;;;;;4.25;1.70;;;;;;;;;;5049563;28;20237;-17
2022/08/28 12:27:50;;;;;;;3.88;1.20;;;;;;;;;;5049086;28;20940;-17
2022/08/28 12:30:25;;;;;;;2.72;1.13;;;;;;;;;;5045986;28;20231;-18
2022/08/28 12:32:54;;;;;;;3.38;1.23;;;;;;;;;;5049508;28;20226;-18
2022/08/28 12:35:22;;;;;;;4.13;1.40;;;;;;;;;;5049741;28;20238;-17
2022/08/28 12:37:58;;;;;;;2.47;0.98;;;;;;;;;;5045036;28;20231;-17
2022/08/28 12:40:26;;;;;;;3.88;1.42;;;;;;;;;;5045486;28;21017;-17
2022/08/28 12:42:54;;;;;;;4.78;1.50;;;;;;;;;;5049318;28;20237;-18
2022/08/28 12:45:23;;;;;;;3.83;1.35;;;;;;;;;;5047690;28;20230;-17
2022/08/28 12:47:52;;;;;;;3.17;1.40;;;;;;;;;;5054028;28;20233;-17
2022/08/28 12:50:21;;;;;;;3.28;1.13;;;;;;;;;;5056825;28;20241;-17
2022/08/28 12:52:49;;;;;;;2.30;1.40;;;;;;;;;;5049935;28;20964;-17
2022/08/28 12:55:17;;;;;;;2.75;1.50;;;;;;;;;;5052483;28;20241;-18
2022/08/28 12:57:50;;;;;;;2.85;1.40;;;;;;;;;;5052732;28;20284;-17
2022/08/28 13:00:18;;;;;;;3.40;1.20;;;;;;;;;;5052898;28;20237;-17
2022/08/28 13:02:46;;;;;;;3.70;1.50;;;;;;;;;;5042245;28;20234;-16
2022/08/28 13:05:35;;;;;;;2.50;1.15;;;;;;;;;;5053012;28;20234;-17
2022/08/28 13:08:04;;;;;;;3.08;1.40;;;;;;;;;;5052772;28;20237;-16
2022/08/28 13:10:34;;;;;;;3.65;1.50;;;;;;;;;;5061732;28;20594;-17
2022/08/28 13:13:01;;;;;;;3.53;1.30;;;;;;;;;;5054429;28;20630;-17
2022/08/28 13:15:45;;;;;;;4.07;1.70;;;;;;;;;;5052798;28;20304;-17
2022/08/28 13:18:27;;;;;;;2.22;1.20;;;;;;;;;;5051526;28;20230;-17
2022/08/28 13:21:10;;;;;;;3.83;1.50;;;;;;;;;;5051828;28;20257;-16
2022/08/28 13:23:39;;;;;;;2.78;1.38;;;;;;;;;;5052181;28;20237;-16
2022/08/28 13:26:06;;;;;;;2.30;1.20;;;;;;;;;;5051718;28;20237;-15
2022/08/28 13:28:35;;;;;;;3.35;1.15;;;;;;;;;;5052181;28;20230;-17
2022/08/28 13:31:03;;;;;;;2.97;1.33;;;;;;;;;;5052564;28;20265;-16
2022/08/28 13:33:31;;;;;;;3.30;1.45;;;;;;;;;;5051455;28;20288;-18
2022/08/28 13:36:17;;;;;;;2.75;1.20;;;;;;;;;;5052582;28;20689;-17
2022/08/28 13:38:46;;;;;;;6.38;1.27;;;;;;;;;;5051927;28;20232;-17
2022/08/28 13:41:14;;;;;;;1.60;1.20;;;;;;;;;;5050364;28;20960;-18
2022/08/28 13:43:42;;;;;;;3.10;1.40;;;;;;;;;;5051714;28;20693;-17
2022/08/28 13:46:10;;;;;;;4.03;1.17;;;;;;;;;;5051726;28;20237;-17
2022/08/28 13:48:37;;;;;;;5.07;1.83;;;;;;;;;;5053972;28;20231;-16
2022/08/28 13:51:05;;;;;;;3.63;1.60;;;;;;;;;;5057937;28;20241;-16
2022/08/28 13:53:37;;;;;;;7.22;1.55;;;;;;;;;;5060466;28;20984;-17
2022/08/28 13:56:06;;;;;;;4.80;1.30;;;;;;;;;;5054227;28;20233;-17
2022/08/28 13:58:33;;;;;;;7.47;1.80;;;;;;;;;;5062799;28;20240;-16
2022/08/28 14:01:00;;;;;;;2.80;1.25;;;;;;;;;;5065674;28;20229;-17
2022/08/28 14:03:37;;;;;;;4.07;1.60;;;;;;;;;;5069333;28;20229;-16
2022/08/28 14:06:05;;;;;;;5.07;1.70;;;;;;;;;;5057183;28;20233;-17
2022/08/28 14:08:32;;;;;;;2.88;1.17;;;;;;;;;;5068333;28;20233;-16
2022/08/28 14:11:00;;;;;;;4.93;1.45;;;;;;;;;;5060893;28;20258;-17
2022/08/28 14:13:29;;;;;;;5.28;1.40;;;;;;;;;;5056926;28;20222;-16
2022/08/28 14:15:56;;;;;;;3.38;1.50;;;;;;;;;;5058771;28;20228;-17
2022/08/28 14:18:24;;;;;;;2.47;1.45;;;;;;;;;;5061301;28;20869;-17
2022/08/28 14:20:51;;;;;;;4.25;1.50;;;;;;;;;;5050338;28;20242;-16
2022/08/28 14:23:18;;;;;;;7.88;1.70;;;;;;;;;;5041064;28;20235;-16
2022/08/28 14:25:46;;;;;;;3.45;1.23;;;;;;;;;;5045399;28;20245;-16
2022/08/28 14:28:14;;;;;;;3.08;1.75;;;;;;;;;;5042885;28;20582;-17
2022/08/28 14:30:43;;;;;;;4.18;1.63;;;;;;;;;;5049808;28;20324;-17
2022/08/28 14:33:10;;;;;;;3.35;1.60;;;;;;;;;;5048535;28;20241;-17
2022/08/28 14:35:39;;;;;;;3.13;1.50;;;;;;;;;;5049283;28;20226;-16
2022/08/28 14:38:06;;;;;;;2.45;1.50;;;;;;;;;;5050474;28;20234;-17
2022/08/28 14:40:35;;;;;;;3.63;1.50;;;;;;;;;;5060580;28;20226;-17
2022/08/28 14:43:02;;;;;;;5.63;1.52;;;;;;;;;;5061006;28;20230;-17
2022/08/28 14:45:30;;;;;;;4.97;1.40;;;;;;;;;;5058744;28;20234;-18
2022/08/28 14:47:59;;;;;;;6.20;2.00;;;;;;;;;;5046456;28;20230;-18
2022/08/28 14:50:26;;;;;;;8.02;1.50;;;;;;;;;;5050146;28;20242;-17
2022/08/28 14:52:54;;;;;;;12.93;1.70;;;;;;;;;;5050361;28;20434;-16
2022/08/28 14:55:21;;;;;;;9.50;1.83;;;;;;;;;;5045144;28;20240;-16
2022/08/28 14:57:49;;;;;;;3.55;1.75;;;;;;;;;;5043191;28;20226;-17
2022/08/28 15:00:17;;;;;;;6.75;1.95;;;;;;;;;;5042187;28;20244;-16
2022/08/28 15:02:45;;;;;;;3.75;1.52;;;;;;;;;;5036874;28;20235;-17